• Join FlightAware (Why Join?)
  • Login
  • US Flag 
12:19PM EDT


 

Airport Tracker/Info


-or-


 

Live Flight TrackerFlight Track Log ✈ N789EX ✈ 24-Apr-2014 ✈ KBFI - KCOS

Flight Track Log - Related Links

Times and Time Zones

All times are in EDT time to prevent confusion due to time zone crossing. See the N789EX flight status page for this flight to view local times or setup timezone preferences in your user account.

Time Position Orientation Groundspeed Altitude Reporting Facility
EDT Latitude Longitude Course Direction KTS MPH feet Rate Location/Type
12:34PM 47.5060 -122.2790 142° Southeast 173 199 1,900  Level FlightAware ADS-B
12:34PM 47.4998 -122.2720 142° Southeast 187 215 2,100 1,560 Climbing FlightAware ADS-B
12:35PM 47.4902 -122.2610 142° Southeast 204 235 2,500 1,920 Climbing FlightAware ADS-B
12:35PM 47.4814 -122.2510 142° Southeast 221 254 2,900 1,980 Climbing FlightAware ADS-B
12:35PM 47.4677 -122.2350 142° Southeast 244 281 3,400 2,400 Climbing FlightAware ADS-B
12:35PM 47.4546 -122.2200 142° Southeast 254 292 4,100 3,480 Climbing FlightAware ADS-B
12:35PM 47.4407 -122.2030 141° Southeast 258 297 5,100 3,660 Climbing FlightAware ADS-B
12:36PM 47.4264 -122.1860 141° Southeast 262 302 6,000 3,240 Climbing FlightAware ADS-B
12:36PM 47.4206 -122.1800 144° Southeast 261 300 6,300 3,300 Climbing FlightAware ADS-B
12:36PM 47.4176 -122.1770 147° Southeast 260 299 6,500 3,720 Climbing FlightAware ADS-B
12:36PM 47.4125 -122.1720 150° Southeast 258 297 6,800 3,960 Climbing FlightAware ADS-B
12:36PM 47.4084 -122.1690 153° Southeast 257 296 7,100 4,260 Climbing FlightAware ADS-B
12:36PM 47.4041 -122.1660 157° South 256 295 7,300 3,420 Climbing FlightAware ADS-B
12:36PM 47.4008 -122.1640 159° South 254 292 7,500 3,420 Climbing FlightAware ADS-B
12:36PM 47.3966 -122.1620 163° South 252 290 7,700 3,960 Climbing FlightAware ADS-B
12:36PM 47.3931 -122.1610 166° South 250 288 7,900 3,000 Climbing FlightAware ADS-B
12:36PM 47.3876 -122.1590 170° South 248 285 8,100 2,460 Climbing FlightAware ADS-B
12:37PM 47.3744 -122.1560 170° South 250 288 8,600 1,980 Climbing FlightAware ADS-B
12:37PM 47.3568 -122.1520 171° South 253 291 9,000 1,140 Climbing FlightAware ADS-B
12:37PM 47.3388 -122.1480 171° South 257 296 9,200 360 Climbing FlightAware ADS-B
12:37PM 47.3209 -122.1440 171° South 257 296 9,200  Level FlightAware ADS-B
12:38PM 47.3056 -122.1400 171° South 256 295 9,200  Level FlightAware ADS-B
12:38PM 47.2888 -122.1370 172° South 255 293 9,200  Level FlightAware ADS-B
12:38PM 47.2714 -122.1330 171° South 258 297 9,200 600 Level FlightAware ADS-B
12:38PM 47.2537 -122.1290 170° South 260 299 9,500 2,220 Climbing FlightAware ADS-B
12:39PM 47.2278 -122.1220 171° South 266 306 10,600 1,800 Climbing FlightAware ADS-B
12:39PM 47.1876 -122.1140 172° South 310 357 11,100 1,080 Climbing FlightAware ADS-B
12:40PM 47.1435 -122.1040 171° South 347 399 11,700 1,200 Climbing FlightAware ADS-B
12:40PM 47.0932 -122.0930 171° South 380 437 12,300 1,560 Climbing FlightAware ADS-B
12:41PM 47.0390 -122.0810 172° South 399 459 13,300 2,340 Climbing FlightAware ADS-B
12:41PM 46.9839 -122.0690 171° South 403 464 14,700 2,820 Climbing FlightAware ADS-B
12:41PM 46.9651 -122.0643 171° South 404 465 15,200 2,580 Climbing FlightAware ADS-B (KPFC)
12:42PM 46.9281 -122.0560 171° South 408 470 16,000 2,340 Climbing FlightAware ADS-B
12:42PM 46.8777 -122.0450 171° South 415 478 17,000 2,340 Climbing FlightAware ADS-B
12:42PM 46.8743 -122.0444 171° South 413 475 17,100 2,220 Climbing FlightAware ADS-B
12:42PM 46.8716 -122.0438 171° South 417 480 17,300 2,160 Climbing FlightAware ADS-B (CYVR)
12:43PM 46.8177 -122.0320 171° South 422 486 18,200 2,280 Climbing FlightAware ADS-B
12:43PM 46.7933 -122.0266 172° South 425 489 18,700 2,220 Climbing FlightAware ADS-B (KPFC)
12:43PM 46.7703 -122.0220 171° South 427 491 19,100 2,100 Climbing FlightAware ADS-B
12:43PM 46.7551 -122.0170 168° South 431 496 19,400 2,100 Climbing FlightAware ADS-B
12:43PM 46.7447 -122.0130 162° South 435 501 19,600 2,400 Climbing FlightAware ADS-B
12:43PM 46.7367 -122.0087 159° South 439 505 19,800 1,680 Climbing FlightAware ADS-B
12:43PM 46.7299 -122.0050 157° South 441 507 19,800 1,980 Level FlightAware ADS-B
12:43PM 46.7191 -121.9970 153° Southeast 445 512 20,100 2,460 Climbing FlightAware ADS-B
12:44PM 46.7076 -121.9878 148° Southeast 450 518 20,300 1,980 Climbing FlightAware ADS-B (KPFC)
12:44PM 46.7038 -121.9840 147° Southeast 452 520 20,400 1,500 Climbing FlightAware ADS-B
12:44PM 46.6947 -121.9740 141° Southeast 458 527 20,500 1,800 Climbing FlightAware ADS-B
12:44PM 46.6865 -121.9630 136° Southeast 463 533 20,700 2,400 Climbing FlightAware ADS-B
12:44PM 46.6792 -121.9520 131° Southeast 468 539 20,900 1,500 Climbing FlightAware ADS-B
12:44PM 46.6760 -121.9457 128° Southeast 471 542 20,900 1,200 Level FlightAware ADS-B (KPFC)
12:44PM 46.6732 -121.9400 127° Southeast 472 543 21,000 1,860 Climbing FlightAware ADS-B
12:44PM 46.6380 -121.8570 121° Southeast 483 556 21,900 1,920 Climbing FlightAware ADS-B
12:45PM 46.6195 -121.8128 120° Southeast 482 555 22,500 1,980 Climbing FlightAware ADS-B (KPFC)
12:45PM 46.6030 -121.7730 121° Southeast 488 562 22,900 1,740 Climbing FlightAware ADS-B
12:45PM 46.5641 -121.6790 121° Southeast 494 568 23,900 1,860 Climbing FlightAware ADS-B
12:46PM 46.5288 -121.5930 121° Southeast 495 570 24,900 1,920 Climbing FlightAware ADS-B
12:46PM 46.5274 -121.5897 120° Southeast 491 565 24,900 1,440 Level FlightAware ADS-B (KPFC)
12:47PM 46.4851 -121.4880 121° Southeast 496 571 25,800 1,440 Climbing FlightAware ADS-B
12:47PM 46.4789 -121.4732 121° Southeast 503 579 25,900 1,260 Climbing FlightAware ADS-B (KPFC)
12:47PM 46.4440 -121.3900 121° Southeast 505 581 26,500 1,260 Climbing FlightAware ADS-B
12:47PM 46.4593 -121.4264 121° Southeast 504 580 26,600 960 Climbing FlightAware ADS-B
12:48PM 46.4073 -121.3020 121° Southeast 514 592 27,000 720 Climbing FlightAware ADS-B
12:48PM 46.4073 -121.3022 121° Southeast 520 598 27,000 1,020 Level FlightAware ADS-B (KPFC)
12:48PM 46.3495 -121.1660 121° Southeast 519 597 27,800 1,200 Climbing FlightAware ADS-B
12:49PM 46.3448 -121.1545 121° Southeast 523 602 27,900 1,020 Climbing FlightAware ADS-B
12:49PM 46.2919 -121.0300 121° Southeast 523 602 28,600 900 Climbing FlightAware ADS-B
12:49PM 46.2853 -121.0141 122° Southeast 530 610 28,600  Level FlightAware ADS-B (KPFC)
12:49PM 46.2704 -120.9790 122° Southeast 533 613 28,600 480 Level FlightAware ADS-B
12:50PM 46.2385 -120.9050 122° Southeast 537 618 28,900 1,080 Climbing FlightAware ADS-B
12:50PM 46.1933 -120.8011 123° Southeast 532 612 29,700 1,080 Climbing FlightAware ADS-B
12:51PM 46.1444 -120.7002 127° Southeast 529 609 30,200 420 Climbing FlightAware ADS-B
12:52PM 46.0782 -120.5758 128° Southeast 541 623 30,300 600 Climbing FlightAware ADS-B
12:53PM 45.9794 -120.3911 127° Southeast 538 619 31,300 600 Climbing FlightAware ADS-B (KPFC)
12:54PM 45.9075 -120.2575 128° Southeast 544 626 31,500 300 Climbing FlightAware ADS-B
12:55PM 45.8282 -120.1106 128° Southeast 548 631 31,900 540 Climbing FlightAware ADS-B
12:55PM 45.7731 -120.0089 127° Southeast 540 621 32,300 720 Climbing FlightAware ADS-B (KPFC)
12:56PM 45.7150 -119.9020 128° Southeast 546 628 32,800 600 Climbing FlightAware ADS-B
12:56PM 45.6463 -119.7761 128° Southeast 548 631 33,200 600 Climbing FlightAware ADS-B (KPFC)
12:57PM 45.6020 -119.6952 128° Southeast 549 632 33,600 540 Climbing FlightAware ADS-B
12:59PM 45.4159 -119.3593 128° Southeast 541 623 34,600 540 Climbing FlightAware ADS-B (KPFC)
01:00PM 45.3543 -119.2484 128° Southeast 533 613 35,000 300 Climbing FlightAware ADS-B (KPFC)
01:00PM 45.3048 -119.1598 128° Southeast 533 613 35,000  Level FlightAware ADS-B (KPFC)
01:01PM 45.2619 -119.0856 128° Southeast 539 620 35,000  Level Seattle Center
01:02PM 45.1681 -118.9178 128° Southeast 539 620 35,000  Level Seattle Center
01:03PM 45.0744 -118.7533 129° Southeast 539 620 35,000  Level Seattle Center
01:04PM 44.9803 -118.5883 129° Southeast 538 619 35,000  Level Seattle Center
01:05PM 44.8853 -118.4239 129° Southeast 539 620 35,000  Level Seattle Center
01:06PM 44.8089 -118.2900 129° Southeast 542 624 35,000  Level Salt Lake Center
01:07PM 44.7133 -118.1244 129° Southeast 544 626 35,000  Level Salt Lake Center
01:08PM 44.6064 -117.9417 129° Southeast 545 627 35,000  Level Salt Lake Center
01:09PM 44.5083 -117.7753 130° Southeast 550 633 35,000  Level Salt Lake Center
01:10PM 44.4106 -117.6081 129° Southeast 555 639 35,000  Level Salt Lake Center
01:12PM 44.1944 -117.2492 130° Southeast 545 627 35,000  Level Salt Lake Center
01:13PM 44.0989 -117.0886 130° Southeast 545 627 35,000  Level Salt Lake Center
01:14PM 44.0011 -116.9256 130° Southeast 550 633 35,000  Level Salt Lake Center
01:15PM 43.9042 -116.7661 130° Southeast 547 629 35,000  Level Salt Lake Center
01:16PM 43.8064 -116.6053 130° Southeast 549 632 35,000  Level Salt Lake Center
01:17PM 43.7075 -116.4456 131° Southeast 551 634 35,000  Level Salt Lake Center
01:18PM 43.5900 -116.2525 130° Southeast 552 635 35,000  Level Salt Lake Center
01:19PM 43.4914 -116.0928 130° Southeast 552 635 35,000  Level Salt Lake Center
01:20PM 43.3942 -115.9333 130° Southeast 550 633 35,000  Level Salt Lake Center
01:26PM 42.9036 -114.7327 117° Southeast 574 661 35,000  Level FlightAware ADS-B (KBTF)
01:27PM 42.8660 -114.6315 117° Southeast 575 662 35,000  Level FlightAware ADS-B (KBTF)
01:27PM 42.8181 -114.5027 117° Southeast 573 659 35,000  Level FlightAware ADS-B (KBTF)
01:28PM 42.7679 -114.3681 117° Southeast 572 658 35,000  Level FlightAware ADS-B (KBTF)
01:29PM 42.7195 -114.2393 117° Southeast 574 661 35,000  Level FlightAware ADS-B (KBTF)
01:29PM 42.6718 -114.1127 117° Southeast 572 658 35,000  Level FlightAware ADS-B (KBTF)
01:30PM 42.6346 -114.0146 117° Southeast 573 659 35,000  Level FlightAware ADS-B (KBTF)
01:31PM 42.5893 -113.8956 117° Southeast 570 656 35,000  Level FlightAware ADS-B
01:31PM 42.5526 -113.7991 117° Southeast 573 659 35,000  Level FlightAware ADS-B
01:32PM 42.5133 -113.6966 117° Southeast 573 659 35,000  Level FlightAware ADS-B
01:32PM 42.4996 -113.6611 117° Southeast 569 655 35,000  Level FlightAware ADS-B (KBTF)
01:32PM 42.4577 -113.5521 117° Southeast 569 655 35,000  Level FlightAware ADS-B (KBTF)
01:33PM 42.4172 -113.4473 117° Southeast 571 657 35,000  Level FlightAware ADS-B (KBTF)
01:33PM 42.3778 -113.3457 117° Southeast 571 657 35,000  Level FlightAware ADS-B (KBTF)
01:34PM 42.3277 -113.2167 117° Southeast 573 659 35,000  Level FlightAware ADS-B (KBTF)
01:35PM 42.2878 -113.1148 117° Southeast 571 657 35,000  Level FlightAware ADS-B (KBTF)
01:35PM 42.2637 -113.0534 117° Southeast 571 657 35,000  Level FlightAware ADS-B (KBTF)
01:35PM 42.2520 -113.0237 117° Southeast 572 658 35,000  Level FlightAware ADS-B (KBTF)
01:36PM 42.2156 -112.9305 118° Southeast 576 663 35,000  Level FlightAware ADS-B
01:36PM 42.2039 -112.9007 118° Southeast 576 663 35,000  Level FlightAware ADS-B
01:36PM 42.1784 -112.8362 117° Southeast 572 658 35,000  Level FlightAware ADS-B (KBTF)
01:37PM 42.1285 -112.7104 118° Southeast 576 663 35,000  Level FlightAware ADS-B (KBTF)
01:37PM 42.1080 -112.6589 117° Southeast 570 656 35,000  Level FlightAware ADS-B (KBTF)
01:38PM 42.0724 -112.5693 118° Southeast 573 659 35,000  Level FlightAware ADS-B
01:38PM 42.0196 -112.4371 118° Southeast 572 658 35,000  Level FlightAware ADS-B
01:39PM 41.9758 -112.3280 118° Southeast 566 651 35,000  Level FlightAware ADS-B (KBTF)
01:40PM 41.9065 -112.1560 118° Southeast 571 657 35,000  Level FlightAware ADS-B (KBTF)
01:40PM 41.8596 -112.0405 119° Southeast 571 657 35,000  Level FlightAware ADS-B (KBTF)
01:41PM 41.8145 -111.9298 119° Southeast 571 657 35,000  Level FlightAware ADS-B (KBTF)
01:42PM 41.7668 -111.8133 119° Southeast 571 657 35,000  Level FlightAware ADS-B (KBTF)
01:42PM 41.7092 -111.6727 119° Southeast 570 656 35,000  Level FlightAware ADS-B (KBTF)
01:43PM 41.6580 -111.5484 119° Southeast 571 657 35,000  Level FlightAware ADS-B (KBTF)
01:44PM 41.6056 -111.4219 119° Southeast 569 655 35,000  Level FlightAware ADS-B (KBTF)
01:44PM 41.5594 -111.3107 119° Southeast 572 658 35,000  Level FlightAware ADS-B (KBTF)
01:46PM 41.4684 -111.0930 119° Southeast 571 657 35,000  Level FlightAware ADS-B
01:47PM 41.3884 -110.9029 119° Southeast 576 663 35,000  Level FlightAware ADS-B
01:48PM 41.2977 -110.6885 120° Southeast 575 662 35,000  Level FlightAware ADS-B
01:50PM 41.1502 -110.3434 120° Southeast 574 661 35,000  Level FlightAware ADS-B
01:51PM 41.0859 -110.1943 120° Southeast 568 654 35,000  Level FlightAware ADS-B
01:52PM 40.9846 -109.9608 120° Southeast 567 652 35,000  Level FlightAware ADS-B
01:54PM 40.8174 -109.5797 120° Southeast 561 646 35,000  Level FlightAware ADS-B
01:55PM 40.7397 -109.4039 120° Southeast 560 644 35,000  Level FlightAware ADS-B
01:56PM 40.6805 -109.2707 120° Southeast 563 648 35,000  Level FlightAware ADS-B (KMTJ)
01:56PM 40.6599 -109.2246 121° Southeast 566 651 35,000  Level FlightAware ADS-B (KMTJ)
01:57PM 40.6111 -109.1156 121° Southeast 566 651 35,000  Level FlightAware ADS-B (KMTJ)
01:57PM 40.5822 -109.0511 120° Southeast 567 652 35,000  Level FlightAware ADS-B
01:57PM 40.5303 -108.9376 122° Southeast 569 655 35,000  Level FlightAware ADS-B (KMTJ)
01:58PM 40.5297 -108.9365 122° Southeast 570 656 35,000  Level FlightAware ADS-B (KMTJ)
01:58PM 40.4719 -108.8194 124° Southeast 563 648 35,000  Level FlightAware ADS-B (KMTJ)
01:59PM 40.4356 -108.7510 125° Southeast 565 650 35,000  Level FlightAware ADS-B (KMTJ)
01:59PM 40.3628 -108.6155 125° Southeast 566 651 35,000  Level FlightAware ADS-B (KMTJ)
02:00PM 40.3147 -108.5269 125° Southeast 563 648 35,000  Level FlightAware ADS-B (KMTJ)
02:00PM 40.2909 -108.4832 125° Southeast 561 646 35,000  Level FlightAware ADS-B
02:01PM 40.2378 -108.3862 126° Southeast 557 641 35,000  Level FlightAware ADS-B (KMTJ)
02:01PM 40.1908 -108.3005 126° Southeast 562 647 35,000  Level FlightAware ADS-B (KMTJ)
02:02PM 40.1517 -108.2296 126° Southeast 559 643 35,000  Level FlightAware ADS-B (KMTJ)
02:02PM 40.0902 -108.1181 126° Southeast 560 644 35,000  Level FlightAware ADS-B (KMTJ)
02:03PM 40.0336 -108.0161 126° Southeast 564 649 35,000  Level FlightAware ADS-B
02:04PM 39.9801 -107.9195 126° Southeast 559 643 35,000  Level FlightAware ADS-B (KMTJ)
02:04PM 39.9353 -107.8386 126° Southeast 557 641 35,000  Level FlightAware ADS-B (KMTJ)
02:05PM 39.8903 -107.7578 126° Southeast 558 642 35,000  Level FlightAware ADS-B (KMTJ)
02:05PM 39.8426 -107.6726 126° Southeast 560 644 35,000  Level FlightAware ADS-B (KMTJ)
02:06PM 39.7910 -107.5809 126° Southeast 561 646 35,000  Level FlightAware ADS-B (KMTJ)
02:06PM 39.7483 -107.5047 126° Southeast 563 648 35,000  Level FlightAware ADS-B (KMTJ)
02:07PM 39.6931 -107.4066 126° Southeast 563 648 35,000  Level FlightAware ADS-B (KMTJ)
02:07PM 39.6472 -107.3254 126° Southeast 564 649 35,000  Level FlightAware ADS-B (KMTJ)
02:08PM 39.5992 -107.2405 126° Southeast 564 649 35,000  Level FlightAware ADS-B (KMTJ)
02:08PM 39.5540 -107.1609 126° Southeast 565 650 35,000  Level FlightAware ADS-B (KMTJ)
02:09PM 39.5064 -107.0771 126° Southeast 565 650 35,000  Level FlightAware ADS-B (KMTJ)
02:09PM 39.4558 -106.9884 126° Southeast 568 654 35,000  Level FlightAware ADS-B (KMTJ)
02:10PM 39.4115 -106.9110 126° Southeast 569 655 35,000  Level FlightAware ADS-B (KMTJ)
02:10PM 39.3615 -106.8237 127° Southeast 570 656 35,000  Level FlightAware ADS-B (KMTJ)
02:11PM 39.3085 -106.7318 127° Southeast 573 659 35,000  Level FlightAware ADS-B (KMTJ)
02:11PM 39.2806 -106.6837 127° Southeast 572 658 35,000 -120 Level FlightAware ADS-B (KMTJ)
02:12PM 39.1973 -106.5399 127° Southeast 568 654 34,900 -420 Descending FlightAware ADS-B (KMTJ)
02:13PM 39.1385 -106.4384 127° Southeast 565 650 34,500 -960 Descending FlightAware ADS-B (KEIK)
02:13PM 39.0815 -106.3405 127° Southeast 559 643 33,800 -1,620 Descending FlightAware ADS-B
02:14PM 38.9724 -106.1548 127° Southeast 557 641 31,700 -1,860 Descending FlightAware ADS-B (KEIK)
02:15PM 38.9283 -106.0791 127° Southeast 559 643 30,700 -2,160 Descending FlightAware ADS-B (KEIK)
02:16PM 38.8574 -105.9587 127° Southeast 561 646 29,100 -1,800 Descending FlightAware ADS-B (KEIK)
02:16PM 38.8098 -105.8780 127° Southeast 561 646 28,400 -960 Descending FlightAware ADS-B (KFLY)
02:18PM 38.6775 -105.6550 127° Southeast 528 608 27,000 -720 Descending FlightAware ADS-B
02:18PM 38.6162 -105.5525 127° Southeast 536 617 27,000  Level FlightAware ADS-B (KFLY)
02:19PM 38.5641 -105.4656 127° Southeast 540 621 27,000  Level FlightAware ADS-B (KEIK)
02:19PM 38.5429 -105.4302 127° Southeast 539 620 27,000 -1,500 Level FlightAware ADS-B (KCOS)
02:20PM 38.4929 -105.3472 127° Southeast 519 597 25,800 -3,900 Descending FlightAware ADS-B (KFLY)
02:20PM 38.4440 -105.2661 127° Southeast 516 594 22,600 -4,380 Descending FlightAware ADS-B (KCOS)
02:21PM 38.3929 -105.1819 128° Southeast 505 581 20,900 -2,940 Descending FlightAware ADS-B (KEIK)
02:21PM 38.3771 -105.1555 127° Southeast 503 579 20,300 -2,400 Descending FlightAware ADS-B (KEIK)
02:22PM 38.3453 -105.0772 109° East 483 556 19,200 -2,220 Descending FlightAware ADS-B (KEIK)
02:22PM 38.3344 -105.0122 96° East 477 549 18,400 -2,340 Descending FlightAware ADS-B (KEIK)
02:23PM 38.3313 -104.9600 95° East 467 537 16,600 -2,280 Descending FlightAware ADS-B (KCOS)
02:24PM 38.3217 -104.7918 65° Northeast 442 509 14,600 -1,980 Descending FlightAware ADS-B (KCOS)
02:24PM 38.3613 -104.6892 43° Northeast 416 479 14,000 -960 Descending FlightAware ADS-B (KFLY)
02:24PM 38.3894 -104.6638 29° Northeast 387 445 13,900 -180 Descending FlightAware ADS-B (KFLY)
02:25PM 38.4063 -104.6543 17° North 359 413 13,900  Level FlightAware ADS-B (KCOS)
02:25PM 38.4361 -104.6454 North 324 373 13,900 -420 Level FlightAware ADS-B (KCOS)
02:26PM 38.5156 -104.6353 14° North 332 382 13,500 -960 Descending FlightAware ADS-B (KFLY)
02:26PM 38.5586 -104.6220 13° North 322 371 12,700 -1,260 Descending FlightAware ADS-B (KCOS)
02:27PM 38.5990 -104.6108 North 303 349 12,200 -1,140 Descending FlightAware ADS-B (KCOS)
02:28PM 38.6824 -104.6068 North 287 330 11,100 -840 Descending FlightAware ADS-B (KFLY)
02:28PM 38.7354 -104.6057 North 296 341 10,900 -180 Descending FlightAware ADS-B (KFLY)
02:29PM 38.7867 -104.6044 North 284 327 10,900 -240 Level FlightAware ADS-B (KFLY)
02:30PM 38.8417 -104.6014 North 260 299 10,600 -840 Descending FlightAware ADS-B (KFLY)
02:30PM 38.8834 -104.5999 North 255 293 9,800 -1,320 Descending FlightAware ADS-B (KFLY)
02:31PM 38.9037 -104.5999 360° North 253 291 9,300 -1,140 Descending FlightAware ADS-B (KFLY)
02:31PM 38.9321 -104.6002 359° North 242 278 9,100 -600 Descending FlightAware ADS-B (KFLY)
02:31PM 38.9570 -104.6007 359° North 236 272 8,900 -300 Descending FlightAware ADS-B (KFLY)
02:32PM 38.9790 -104.6010 359° North 236 272 8,900  Level FlightAware ADS-B (KFLY)
02:32PM 39.0014 -104.6014 356° North 234 269 8,900  Level FlightAware ADS-B (KFLY)
02:32PM 39.0202 -104.6108 319° Northwest 228 262 8,900  Level FlightAware ADS-B (KFLY)
02:33PM 39.0301 -104.6370 278° West 236 272 8,900  Level FlightAware ADS-B (KFLY)
02:33PM 39.0284 -104.6646 249° West 233 268 8,900  Level FlightAware ADS-B (KFLY)
02:33PM 39.0138 -104.6834 201° Southwest 218 251 8,900  Level FlightAware ADS-B (KFLY)
02:34PM 38.9960 -104.6849 179° South 200 230 8,900  Level FlightAware ADS-B (KFLY)
02:34PM 38.9791 -104.6854 179° South 182 209 8,900 120 Level FlightAware ADS-B (KFLY)
02:34PM 38.9617 -104.6852 180° South 180 207 9,000 -300 Climbing FlightAware ADS-B (KFLY)
02:35PM 38.9442 -104.6853 180° South 193 222 8,700 -1,200 Descending FlightAware ADS-B (KFLY)
02:35PM 38.9264 -104.6854 180° South 184 212 8,200 -1,080 Descending FlightAware ADS-B (KFLY)
02:35PM 38.9091 -104.6855 180° South 183 211 8,000 -960 Descending FlightAware ADS-B (KFLY)
02:36PM 38.8917 -104.6855 180° South 182 209 7,600 -1,080 Descending FlightAware ADS-B (KFLY)
02:36PM 38.8756 -104.6855 180° South 184 212 7,300 -960 Descending FlightAware ADS-B (KFLY)
02:36PM 38.8595 -104.6856 180° South 181 208 7,000 -960 Descending FlightAware ADS-B (KFLY)
02:44PM 38.8000 -104.7000 201° Southwest  Level FlightAware Approximate
02:45PM 38.8058 -104.7008 201° Southwest  Level Estimated
02:46PM 38.8000 -104.7000 201° Southwest  Level FlightAware Approximate
02:47PM 38.8058 -104.7008 201° Southwest  Level Estimated